createdAt,value
2018-11-22T00:02:27.286Z,3.00
2018-11-22T00:05:07.246Z,3.00
2018-11-22T00:07:47.948Z,3.00
2018-11-22T00:10:28.187Z,3.10
2018-11-22T00:13:08.461Z,3.20
2018-11-22T00:15:48.931Z,3.20
2018-11-22T00:18:30.102Z,3.20
2018-11-22T00:21:10.244Z,3.30
2018-11-22T00:23:49.913Z,3.40
2018-11-22T00:26:29.995Z,3.30
2018-11-22T00:29:09.580Z,3.20
2018-11-22T00:31:52.011Z,3.20
2018-11-22T00:34:31.929Z,3.20
2018-11-22T00:37:11.666Z,3.10
2018-11-22T00:39:51.699Z,3.20
2018-11-22T00:42:31.530Z,3.20
2018-11-22T00:45:12.800Z,3.20
2018-11-22T00:47:52.487Z,3.30
2018-11-22T00:50:32.235Z,3.30
2018-11-22T00:53:11.893Z,3.30
2018-11-22T00:55:51.667Z,3.30
2018-11-22T00:58:31.402Z,3.30
2018-11-22T01:01:10.983Z,3.20
2018-11-22T01:03:50.916Z,3.20
2018-11-22T01:06:30.545Z,3.30
2018-11-22T01:09:11.548Z,3.30
2018-11-22T01:11:51.860Z,3.30
2018-11-22T01:14:31.502Z,3.40
2018-11-22T01:17:11.862Z,3.30
2018-11-22T01:19:51.665Z,3.30
2018-11-22T01:22:32.041Z,3.30
2018-11-22T01:25:12.725Z,3.20
2018-11-22T01:27:52.985Z,3.30
2018-11-22T01:30:32.650Z,3.30
2018-11-22T01:33:12.651Z,3.30
2018-11-22T01:35:52.551Z,3.30
2018-11-22T01:38:32.351Z,3.40
2018-11-22T01:41:12.354Z,3.40
2018-11-22T01:43:52.190Z,3.50
2018-11-22T01:46:32.706Z,3.50
2018-11-22T01:49:12.597Z,3.50
2018-11-22T01:51:52.234Z,3.50
2018-11-22T01:54:32.031Z,3.50
2018-11-22T01:57:11.849Z,3.50
2018-11-22T01:59:51.308Z,3.60
2018-11-22T02:02:30.868Z,3.60
2018-11-22T02:05:11.698Z,3.60
2018-11-22T02:07:51.868Z,3.60
2018-11-22T02:10:32.110Z,3.60
2018-11-22T02:13:11.905Z,3.60
2018-11-22T02:15:51.421Z,3.60
2018-11-22T02:18:31.898Z,3.60
2018-11-22T02:21:11.537Z,3.70
2018-11-22T02:23:51.265Z,3.70
2018-11-22T02:26:31.101Z,3.70
2018-11-22T02:29:10.865Z,3.70
2018-11-22T02:31:50.292Z,3.70
2018-11-22T02:34:30.046Z,3.80
2018-11-22T02:37:09.782Z,3.80
2018-11-22T02:39:49.425Z,3.80
2018-11-22T02:42:28.870Z,3.80
2018-11-22T02:45:08.844Z,3.80
2018-11-22T02:47:48.516Z,3.80
2018-11-22T02:50:28.582Z,3.90
2018-11-22T02:53:08.168Z,3.90
2018-11-22T02:55:47.690Z,3.90
2018-11-22T02:58:27.487Z,3.90
2018-11-22T03:01:07.199Z,3.90
2018-11-22T03:03:46.760Z,3.90
2018-11-22T03:06:26.400Z,3.90
2018-11-22T03:09:06.120Z,3.90
2018-11-22T03:11:45.679Z,3.90
2018-11-22T03:14:25.548Z,3.90
2018-11-22T03:17:05.497Z,3.90
2018-11-22T03:19:45.228Z,3.90
2018-11-22T03:22:24.822Z,3.90
2018-11-22T03:25:04.533Z,3.90
2018-11-22T03:27:45.204Z,3.90
2018-11-22T03:30:25.535Z,3.90
2018-11-22T03:33:05.118Z,3.90
2018-11-22T03:35:45.052Z,3.90
2018-11-22T03:38:30.870Z,3.90
2018-11-22T03:41:10.768Z,3.90
2018-11-22T03:43:50.276Z,3.70
2018-11-22T03:46:30.125Z,3.60
2018-11-22T03:49:09.805Z,3.40
2018-11-22T03:51:49.547Z,3.40
2018-11-22T03:54:29.409Z,3.30
2018-11-22T03:57:08.856Z,3.30
2018-11-22T03:59:48.627Z,3.30
2018-11-22T04:02:28.768Z,3.30
2018-11-22T04:05:08.406Z,3.20
2018-11-22T04:07:48.835Z,3.20
2018-11-22T04:10:30.075Z,3.30
2018-11-22T04:13:10.407Z,3.30
2018-11-22T04:15:50.147Z,3.30
2018-11-22T04:18:29.684Z,3.20
2018-11-22T04:21:09.255Z,3.20
2018-11-22T04:23:49.081Z,3.10
2018-11-22T04:26:28.784Z,3.10
2018-11-22T04:29:08.621Z,3.10
2018-11-22T04:31:48.691Z,3.00
2018-11-22T04:34:28.574Z,3.00
2018-11-22T04:37:08.172Z,2.90
2018-11-22T04:39:47.977Z,2.80
2018-11-22T04:42:27.955Z,2.90
2018-11-22T04:45:08.577Z,2.90
2018-11-22T04:47:49.717Z,2.90
2018-11-22T04:50:32.350Z,2.90
2018-11-22T04:53:12.310Z,2.90
2018-11-22T04:55:52.781Z,2.90
2018-11-22T04:58:32.571Z,2.80
2018-11-22T05:01:12.240Z,2.80
2018-11-22T05:03:51.998Z,2.90
2018-11-22T05:06:31.698Z,2.80
2018-11-22T05:09:11.765Z,2.90
2018-11-22T05:11:51.720Z,2.90
2018-11-22T05:14:31.444Z,3.00
2018-11-22T05:17:11.502Z,2.90
2018-11-22T05:19:51.302Z,2.90
2018-11-22T05:22:31.169Z,2.90
2018-11-22T05:25:11.412Z,3.00
2018-11-22T05:27:51.761Z,3.00
2018-11-22T05:30:32.134Z,3.00
2018-11-22T05:33:12.382Z,3.00
2018-11-22T05:35:52.723Z,3.10
2018-11-22T05:38:32.405Z,3.20
2018-11-22T05:41:12.317Z,3.30
2018-11-22T05:43:52.191Z,3.30
2018-11-22T05:46:31.898Z,3.30
2018-11-22T05:49:11.694Z,3.30
2018-11-22T05:51:51.466Z,3.30
2018-11-22T05:54:31.470Z,3.30
2018-11-22T05:57:09.423Z,3.40
2018-11-22T05:59:49.189Z,3.50
2018-11-22T06:02:29.143Z,3.50
2018-11-22T06:05:09.780Z,3.60
2018-11-22T06:07:50.153Z,3.60
2018-11-22T06:10:31.505Z,3.70
2018-11-22T06:13:11.500Z,3.70
2018-11-22T06:15:51.361Z,3.70
2018-11-22T06:21:11.162Z,3.80
2018-11-22T06:23:51.162Z,3.90
2018-11-22T06:26:30.936Z,3.90
2018-11-22T06:29:10.429Z,4.00
2018-11-22T06:31:50.420Z,4.00
2018-11-22T06:34:30.574Z,4.00
2018-11-22T06:37:10.280Z,4.00
2018-11-22T06:39:50.133Z,4.10
2018-11-22T06:42:29.923Z,4.00
2018-11-22T06:45:11.906Z,4.00
2018-11-22T06:47:51.926Z,4.00
2018-11-22T06:50:31.595Z,4.00
2018-11-22T06:53:11.142Z,4.00
2018-11-22T06:55:51.604Z,3.90
2018-11-22T06:58:30.512Z,3.90
2018-11-22T07:01:10.268Z,3.80
2018-11-22T07:03:50.206Z,3.90
2018-11-22T07:06:30.779Z,3.90
2018-11-22T07:09:10.558Z,3.90
2018-11-22T07:11:50.273Z,3.90
2018-11-22T07:14:30.768Z,3.90
2018-11-22T07:17:10.818Z,3.80
2018-11-22T07:19:51.117Z,3.70
2018-11-22T07:22:32.229Z,3.70
2018-11-22T07:25:13.509Z,3.80
2018-11-22T07:27:52.898Z,3.80
2018-11-22T07:30:42.162Z,3.80
2018-11-22T07:33:14.671Z,3.80
2018-11-22T07:35:54.408Z,3.80
2018-11-22T07:38:34.825Z,3.80
2018-11-22T07:41:14.742Z,3.80
2018-11-22T07:43:54.225Z,3.90
2018-11-22T07:46:34.005Z,4.00
2018-11-22T07:49:14.563Z,4.20
2018-11-22T07:51:55.027Z,4.60
2018-11-22T07:54:34.698Z,5.40
2018-11-22T07:57:14.674Z,6.50
2018-11-22T07:59:55.200Z,8.20
2018-11-22T08:02:35.747Z,9.80
2018-11-22T08:05:16.657Z,11.20
2018-11-22T08:07:56.353Z,12.30
2018-11-22T08:10:35.983Z,13.40
2018-11-22T08:13:15.776Z,13.90
2018-11-22T08:15:55.351Z,13.60
2018-11-22T08:18:34.946Z,13.20
2018-11-22T08:21:17.317Z,13.10
2018-11-22T08:23:57.445Z,12.50
2018-11-22T08:26:37.237Z,11.80
2018-11-22T08:29:17.090Z,11.50
2018-11-22T08:31:56.606Z,10.90
2018-11-22T08:34:36.537Z,10.30
2018-11-22T08:37:16.293Z,9.80
2018-11-22T08:39:55.813Z,9.70
2018-11-22T08:42:36.145Z,9.40
2018-11-22T08:45:17.278Z,9.10
2018-11-22T08:47:57.400Z,8.80
2018-11-22T08:50:38.094Z,8.30
2018-11-22T08:53:17.513Z,8.10
2018-11-22T08:55:57.277Z,8.10
2018-11-22T08:58:37.178Z,7.90
2018-11-22T09:01:17.041Z,7.70
2018-11-22T09:03:56.852Z,7.70
2018-11-22T09:06:36.587Z,7.60
2018-11-22T09:09:17.004Z,7.50
2018-11-22T09:11:56.963Z,7.30
2018-11-22T09:14:36.594Z,7.40
2018-11-22T09:17:16.144Z,7.40
2018-11-22T09:19:55.906Z,7.10
2018-11-22T09:22:35.480Z,7.20
2018-11-22T09:25:16.550Z,7.30
2018-11-22T09:27:56.971Z,7.30
2018-11-22T09:30:37.079Z,7.20
2018-11-22T09:33:17.419Z,7.00
2018-11-22T09:35:57.323Z,7.00
2018-11-22T09:38:36.908Z,7.00
2018-11-22T09:41:17.365Z,7.10
2018-11-22T09:43:57.231Z,7.20
2018-11-22T09:46:36.861Z,7.10
2018-11-22T09:49:16.899Z,7.30
2018-11-22T09:51:56.678Z,7.50
2018-11-22T09:54:36.623Z,7.80
2018-11-22T09:57:17.331Z,8.40
2018-11-22T09:59:57.182Z,9.30
2018-11-22T10:02:37.195Z,10.40
2018-11-22T10:05:18.353Z,11.40
2018-11-22T10:07:58.609Z,12.60
2018-11-22T10:10:42.047Z,14.60
2018-11-22T10:13:22.086Z,16.50
2018-11-22T10:16:02.671Z,17.80
2018-11-22T10:18:42.874Z,19.40
2018-11-22T10:21:22.515Z,20.80
2018-11-22T10:24:03.102Z,21.00
2018-11-22T10:26:42.646Z,22.50
2018-11-22T10:29:22.363Z,23.90
2018-11-22T10:32:02.289Z,24.60
2018-11-22T10:34:43.771Z,25.40
2018-11-22T10:37:23.741Z,26.20
2018-11-22T10:40:03.636Z,26.90
2018-11-22T10:42:44.248Z,27.00
2018-11-22T10:45:25.772Z,26.90
2018-11-22T10:48:13.537Z,27.30
2018-11-22T10:50:55.816Z,27.70
2018-11-22T10:56:24.891Z,27.80
2018-11-22T10:59:04.317Z,28.40
2018-11-22T11:02:09.767Z,29.00
2018-11-22T11:05:09.548Z,29.30
2018-11-22T11:07:55.439Z,29.70
2018-11-22T11:10:35.566Z,30.00
2018-11-22T11:13:15.346Z,30.20
2018-11-22T11:15:55.210Z,30.50
2018-11-22T11:18:34.999Z,30.80
2018-11-22T11:21:14.560Z,31.10
2018-11-22T11:23:54.097Z,31.30
2018-11-22T11:26:33.862Z,31.30
2018-11-22T11:29:13.425Z,31.20
2018-11-22T11:31:53.339Z,31.30
2018-11-22T11:34:33.272Z,31.40
2018-11-22T11:37:13.734Z,31.30
2018-11-22T11:39:56.881Z,30.20
2018-11-22T11:42:33.997Z,29.50
2018-11-22T11:45:13.529Z,29.60
2018-11-22T11:47:54.587Z,30.10
2018-11-22T11:50:43.297Z,30.10
2018-11-22T11:56:20.115Z,30.30
2018-11-22T11:58:58.939Z,30.20
2018-11-22T12:01:38.631Z,30.40
2018-11-22T12:04:18.407Z,30.20
2018-11-22T12:06:58.387Z,30.20
2018-11-22T12:09:37.988Z,30.00
2018-11-22T12:12:17.648Z,29.50
2018-11-22T12:14:57.654Z,28.60
2018-11-22T12:17:37.959Z,27.90
2018-11-22T12:20:18.648Z,27.40
2018-11-22T12:22:59.098Z,26.70
2018-11-22T12:25:38.665Z,25.50
2018-11-22T12:28:18.967Z,24.30
2018-11-22T12:31:06.098Z,23.10
2018-11-22T12:33:38.486Z,21.80
2018-11-22T12:36:22.752Z,20.50
2018-11-22T12:39:02.747Z,19.40
2018-11-22T12:41:42.809Z,18.50
2018-11-22T12:44:23.467Z,17.70
2018-11-22T12:47:03.149Z,16.90
2018-11-22T12:49:42.893Z,16.10
2018-11-22T12:52:22.877Z,15.40
2018-11-22T12:55:02.646Z,14.90
2018-11-22T12:57:42.424Z,14.40
2018-11-22T13:00:21.949Z,14.10
2018-11-22T13:03:01.566Z,13.70
2018-11-22T13:05:41.033Z,13.40
2018-11-22T13:08:20.939Z,13.10
2018-11-22T13:11:00.705Z,12.80
2018-11-22T13:13:40.130Z,12.60
2018-11-22T13:16:20.018Z,12.40
2018-11-22T13:18:59.699Z,12.20
2018-11-22T13:21:39.530Z,12.00
2018-11-22T13:24:19.470Z,11.90
2018-11-22T13:27:32.672Z,11.70
2018-11-22T13:30:00.408Z,11.60
2018-11-22T13:32:28.093Z,11.50
2018-11-22T13:34:55.804Z,11.40
2018-11-22T13:37:23.493Z,11.20
2018-11-22T13:39:51.135Z,11.10
2018-11-22T13:42:18.905Z,11.00
2018-11-22T13:44:46.626Z,10.90
2018-11-22T13:47:14.337Z,10.80
2018-11-22T13:49:42.099Z,10.70
2018-11-22T13:52:09.863Z,10.60
2018-11-22T13:54:37.532Z,10.50
2018-11-22T13:57:05.799Z,10.30
2018-11-22T13:59:33.437Z,10.10
2018-11-22T14:02:01.549Z,10.10
2018-11-22T14:04:29.282Z,10.00
2018-11-22T14:06:57.023Z,10.00
2018-11-22T14:09:24.777Z,9.90
2018-11-22T14:11:52.535Z,9.80
2018-11-22T14:14:20.285Z,9.70
2018-11-22T14:16:47.996Z,9.60
2018-11-22T14:19:15.747Z,9.60
2018-11-22T14:21:43.439Z,9.50
2018-11-22T14:24:11.158Z,9.50
2018-11-22T14:26:38.927Z,9.50
2018-11-22T14:29:06.664Z,9.50
2018-11-22T14:31:34.370Z,9.50
2018-11-22T14:34:02.090Z,9.40
2018-11-22T14:36:29.893Z,9.40
2018-11-22T14:38:57.600Z,9.30
2018-11-22T14:41:25.305Z,9.10
2018-11-22T14:43:53.072Z,9.10
2018-11-22T14:46:20.810Z,9.00
2018-11-22T14:48:48.507Z,9.00
2018-11-22T14:51:21.716Z,8.90
2018-11-22T14:53:49.455Z,8.80
2018-11-22T14:56:17.146Z,8.70
2018-11-22T14:58:44.838Z,8.60
2018-11-22T15:01:12.535Z,8.50
2018-11-22T15:03:40.264Z,8.50
2018-11-22T15:06:07.972Z,8.50
2018-11-22T15:08:35.665Z,8.50
2018-11-22T15:11:03.406Z,8.40
2018-11-22T15:13:31.165Z,8.40
2018-11-22T15:15:58.881Z,8.30
2018-11-22T15:18:26.678Z,8.30
2018-11-22T15:21:00.882Z,8.20
2018-11-22T15:23:22.152Z,8.20
2018-11-22T15:25:49.805Z,8.10
2018-11-22T15:28:17.799Z,8.10
2018-11-22T15:30:45.519Z,8.00
2018-11-22T15:33:13.231Z,7.90
2018-11-22T15:35:40.954Z,7.90
2018-11-22T15:38:08.653Z,7.70
2018-11-22T15:40:36.426Z,7.60
2018-11-22T15:43:04.389Z,7.50
2018-11-22T15:45:35.017Z,7.40
2018-11-22T15:48:00.681Z,7.30
2018-11-22T15:50:30.494Z,7.20
2018-11-22T15:52:58.357Z,7.10
2018-11-22T15:55:26.632Z,7.00
2018-11-22T15:57:56.810Z,6.90
2018-11-22T16:00:25.937Z,6.80
2018-11-22T16:02:54.343Z,6.70
2018-11-22T16:05:22.679Z,6.50
2018-11-22T16:07:50.429Z,6.50
2018-11-22T16:10:26.295Z,6.30
2018-11-22T16:12:48.816Z,6.20
2018-11-22T16:15:25.601Z,6.10
2018-11-22T16:17:53.309Z,6.00
2018-11-22T16:20:21.058Z,5.90
2018-11-22T16:22:48.801Z,5.80
2018-11-22T16:25:16.532Z,5.70
2018-11-22T16:27:44.342Z,5.60
2018-11-22T16:30:20.949Z,5.50
2018-11-22T16:32:48.765Z,5.40
2018-11-22T16:35:17.998Z,5.40
2018-11-22T16:37:45.959Z,5.30
2018-11-22T16:40:14.903Z,5.20
2018-11-22T16:42:43.846Z,5.10
2018-11-22T16:45:35.490Z,5.00
2018-11-22T16:48:04.962Z,4.90
2018-11-22T16:50:33.867Z,4.80
2018-11-22T16:53:01.599Z,4.70
2018-11-22T16:55:29.361Z,4.70
2018-11-22T16:57:58.412Z,4.60
2018-11-22T17:00:30.546Z,4.40
2018-11-22T17:02:59.653Z,4.40
2018-11-22T17:05:28.728Z,4.30
2018-11-22T17:07:56.677Z,4.20
2018-11-22T17:10:25.801Z,4.20
2018-11-22T17:12:54.770Z,4.10
2018-11-22T17:15:25.937Z,4.10
2018-11-22T17:17:54.376Z,4.00
2018-11-22T17:20:22.895Z,4.00
2018-11-22T17:22:51.236Z,3.90
2018-11-22T17:25:20.394Z,3.90
2018-11-22T17:27:49.614Z,3.90
2018-11-22T17:30:18.472Z,3.80
2018-11-22T17:32:46.430Z,3.80
2018-11-22T17:35:16.682Z,3.80
2018-11-22T17:37:44.589Z,3.80
2018-11-22T17:40:15.777Z,3.70
2018-11-22T17:42:43.575Z,3.70
2018-11-22T17:45:13.245Z,3.60
2018-11-22T17:47:41.355Z,3.60
2018-11-22T17:50:11.672Z,3.50
2018-11-22T17:52:39.511Z,3.50
2018-11-22T17:55:10.541Z,3.50
2018-11-22T17:57:38.789Z,3.40
2018-11-22T18:00:13.221Z,3.40
2018-11-22T18:02:41.024Z,3.30
2018-11-22T18:05:10.221Z,3.30
2018-11-22T18:07:38.066Z,3.20
2018-11-22T18:10:07.461Z,3.10
2018-11-22T18:12:35.442Z,3.10
2018-11-22T18:15:03.199Z,3.00
2018-11-22T18:17:31.021Z,3.00
2018-11-22T18:19:58.811Z,3.00
2018-11-22T18:22:26.567Z,2.90
2018-11-22T18:24:54.316Z,2.90
2018-11-22T18:27:22.693Z,2.80
2018-11-22T18:29:52.653Z,2.80
2018-11-22T18:32:20.395Z,2.80
2018-11-22T18:34:49.124Z,2.70
2018-11-22T18:37:16.909Z,2.70
2018-11-22T18:39:44.605Z,2.70
2018-11-22T18:42:12.390Z,2.70
2018-11-22T18:44:41.074Z,2.60
2018-11-22T18:47:08.890Z,2.60
2018-11-22T18:49:36.642Z,2.50
2018-11-22T18:52:04.504Z,2.50
2018-11-22T18:54:32.229Z,2.50
2018-11-22T18:56:59.997Z,2.50
2018-11-22T18:59:27.795Z,2.50
2018-11-22T19:01:55.590Z,2.50
2018-11-22T19:04:23.367Z,2.60
2018-11-22T19:06:51.111Z,2.50
2018-11-22T19:09:18.838Z,2.50
2018-11-22T19:11:46.716Z,2.40
2018-11-22T19:14:14.550Z,2.40
2018-11-22T19:16:42.458Z,2.30
2018-11-22T19:19:10.242Z,2.30
2018-11-22T19:21:40.997Z,2.20
2018-11-22T19:24:05.884Z,2.10
2018-11-22T19:26:33.749Z,2.10
2018-11-22T19:29:01.535Z,2.10
2018-11-22T19:31:29.291Z,2.00
2018-11-22T19:33:57.052Z,2.00
2018-11-22T19:36:24.786Z,2.00
2018-11-22T19:38:52.594Z,2.00
2018-11-22T19:41:20.366Z,2.00
2018-11-22T19:43:48.142Z,1.90
2018-11-22T19:46:15.967Z,1.90
2018-11-22T19:48:43.766Z,1.90
2018-11-22T19:51:11.579Z,1.80
2018-11-22T19:53:39.365Z,1.80
2018-11-22T19:56:07.141Z,1.70
2018-11-22T19:58:34.914Z,1.70
2018-11-22T20:01:07.560Z,1.70
2018-11-22T20:03:30.674Z,1.70
2018-11-22T20:05:58.516Z,1.60
2018-11-22T20:08:26.306Z,1.60
2018-11-22T20:10:54.121Z,1.60
2018-11-22T20:13:21.893Z,1.60
2018-11-22T20:15:50.899Z,1.60
2018-11-22T20:18:17.433Z,1.60
2018-11-22T20:20:49.528Z,1.60
2018-11-22T20:23:13.046Z,1.60
2018-11-22T20:25:40.853Z,1.60
2018-11-22T20:28:08.692Z,1.60
2018-11-22T20:30:38.157Z,1.60
2018-11-22T20:33:05.955Z,1.60
2018-11-22T20:35:33.783Z,1.60
2018-11-22T20:38:01.534Z,1.60
2018-11-22T20:40:32.458Z,1.60
2018-11-22T20:43:00.465Z,1.60
2018-11-22T20:45:28.850Z,1.60
2018-11-22T20:47:58.376Z,1.60
2018-11-22T20:50:27.764Z,1.60
2018-11-22T20:52:56.367Z,1.50
2018-11-22T20:55:26.384Z,1.50
2018-11-22T20:57:56.112Z,1.50
2018-11-22T21:00:26.151Z,1.50
2018-11-22T21:02:53.882Z,1.50
2018-11-22T21:05:22.410Z,1.50
2018-11-22T21:07:50.176Z,1.50
2018-11-22T21:10:20.229Z,1.50
2018-11-22T21:12:47.982Z,1.50
2018-11-22T21:15:18.580Z,1.50
2018-11-22T21:17:48.067Z,1.50
2018-11-22T21:20:17.048Z,1.50
2018-11-22T21:22:44.880Z,1.50
2018-11-22T21:25:13.911Z,1.50
2018-11-22T21:27:41.638Z,1.50
2018-11-22T21:30:20.838Z,1.50
2018-11-22T21:32:49.303Z,1.50
2018-11-22T21:35:17.503Z,1.50
2018-11-22T21:37:45.731Z,1.40
2018-11-22T21:40:14.752Z,1.40
2018-11-22T21:42:42.090Z,1.40
2018-11-22T21:45:12.643Z,1.40
2018-11-22T21:47:40.919Z,1.30
2018-11-22T21:50:10.098Z,1.30
2018-11-22T21:52:37.880Z,1.30
2018-11-22T21:55:09.155Z,1.30
2018-11-22T21:57:38.402Z,1.20
2018-11-22T22:00:12.370Z,1.20
2018-11-22T22:02:40.176Z,1.20
2018-11-22T22:05:08.431Z,1.10
2018-11-22T22:07:36.139Z,1.10
2018-11-22T22:10:04.085Z,1.10
2018-11-22T22:12:31.826Z,1.00
2018-11-22T22:15:00.485Z,1.00
2018-11-22T22:17:29.081Z,0.90
2018-11-22T22:19:56.845Z,0.80
2018-11-22T22:22:24.597Z,0.70
2018-11-22T22:24:52.341Z,0.70
2018-11-22T22:27:20.022Z,0.70
2018-11-22T22:29:47.822Z,0.70
2018-11-22T22:32:15.561Z,0.60
2018-11-22T22:34:43.247Z,0.50
2018-11-22T22:37:10.990Z,0.50
2018-11-22T22:39:39.360Z,0.50
2018-11-22T22:42:07.107Z,0.40
2018-11-22T22:44:34.810Z,0.40
2018-11-22T22:47:03.212Z,0.40
2018-11-22T22:49:31.041Z,0.50
2018-11-22T22:51:58.894Z,0.50
2018-11-22T22:54:26.630Z,0.50
2018-11-22T22:56:54.333Z,0.50
2018-11-22T22:59:22.090Z,0.50
2018-11-22T23:01:49.924Z,0.50
2018-11-22T23:04:17.717Z,0.50
2018-11-22T23:06:45.482Z,0.50
2018-11-22T23:09:13.309Z,0.50
2018-11-22T23:11:41.913Z,0.50
2018-11-22T23:14:09.657Z,0.50
2018-11-22T23:16:37.359Z,0.50
2018-11-22T23:19:05.143Z,0.50
2018-11-22T23:21:32.888Z,0.50
2018-11-22T23:24:00.623Z,0.50
2018-11-22T23:26:28.450Z,0.40
2018-11-22T23:28:56.285Z,0.40
2018-11-22T23:31:23.939Z,0.40
2018-11-22T23:33:51.712Z,0.40
2018-11-22T23:36:19.440Z,0.30
2018-11-22T23:38:47.169Z,0.30
2018-11-22T23:41:14.920Z,0.30
2018-11-22T23:43:42.793Z,0.20
2018-11-22T23:46:10.477Z,0.20
2018-11-22T23:48:38.280Z,0.10
2018-11-22T23:51:05.962Z,0.10
2018-11-22T23:53:33.987Z,0.00
2018-11-22T23:56:01.651Z,0.00
2018-11-22T23:58:30.288Z,0.00
